createdAt,value
2019-03-27T00:03:01.826Z,6.58
2019-03-27T00:09:19.921Z,6.62
2019-03-27T00:15:39.826Z,6.50
2019-03-27T00:21:58.041Z,6.35
2019-03-27T00:28:28.502Z,6.36
2019-03-27T00:34:11.733Z,6.26
2019-03-27T00:40:30.779Z,6.08
2019-03-27T00:50:25.398Z,5.99
2019-03-27T00:56:43.407Z,5.82
2019-03-27T01:03:01.951Z,5.69
2019-03-27T01:09:35.324Z,5.67
2019-03-27T01:15:53.890Z,5.65
2019-03-27T01:22:15.238Z,5.48
2019-03-27T01:28:45.358Z,5.29
2019-03-27T01:34:42.276Z,5.23
2019-03-27T01:41:00.633Z,5.09
2019-03-27T01:51:06.477Z,4.93
2019-03-27T01:57:24.073Z,4.87
2019-03-27T02:03:11.870Z,4.61
2019-03-27T02:05:43.364Z,4.62
2019-03-27T02:08:15.062Z,4.64
2019-03-27T02:10:46.397Z,4.61
2019-03-27T02:13:17.845Z,4.58
2019-03-27T02:15:49.260Z,4.55
2019-03-27T02:18:20.809Z,4.52
2019-03-27T02:20:52.425Z,4.47
2019-03-27T02:23:23.952Z,4.44
2019-03-27T02:25:55.394Z,4.43
2019-03-27T02:28:28.925Z,4.35
2019-03-27T02:31:00.791Z,4.33
2019-03-27T02:33:32.645Z,4.37
2019-03-27T02:36:04.061Z,4.34
2019-03-27T02:38:35.449Z,4.33
2019-03-27T02:41:06.862Z,4.39
2019-03-27T02:43:39.300Z,4.36
2019-03-27T02:46:23.675Z,4.32
2019-03-27T02:48:44.347Z,4.25
2019-03-27T02:51:16.970Z,4.29
2019-03-27T02:53:48.344Z,4.25
2019-03-27T02:56:19.772Z,4.17
2019-03-27T02:58:51.202Z,4.28
2019-03-27T03:01:22.681Z,4.36
2019-03-27T03:03:54.164Z,4.37
2019-03-27T03:06:25.508Z,4.31
2019-03-27T03:08:56.909Z,4.25
2019-03-27T03:11:28.320Z,4.25
2019-03-27T03:13:59.799Z,4.08
2019-03-27T03:16:42.233Z,4.13
2019-03-27T03:19:04.279Z,4.20
2019-03-27T03:21:35.712Z,4.25
2019-03-27T03:24:07.299Z,4.20
2019-03-27T03:26:38.689Z,4.08
2019-03-27T03:29:10.112Z,4.13
2019-03-27T03:31:41.510Z,4.08
2019-03-27T03:34:13.017Z,3.96
2019-03-27T03:36:45.832Z,4.04
2019-03-27T03:39:17.219Z,3.99
2019-03-27T03:41:48.675Z,4.01
2019-03-27T03:44:20.122Z,3.95
2019-03-27T03:46:59.636Z,3.89
2019-03-27T03:49:24.642Z,3.89
2019-03-27T03:51:57.203Z,3.90
2019-03-27T03:54:31.307Z,3.93
2019-03-27T03:57:06.471Z,3.93
2019-03-27T03:59:40.335Z,3.87
2019-03-27T04:02:13.219Z,3.87
2019-03-27T04:04:46.236Z,3.83
2019-03-27T04:07:17.548Z,3.83
2019-03-27T04:09:48.976Z,3.82
2019-03-27T04:12:20.409Z,3.86
2019-03-27T04:14:51.785Z,3.78
2019-03-27T04:17:26.104Z,3.82
2019-03-27T04:19:57.514Z,3.79
2019-03-27T04:22:28.913Z,3.71
2019-03-27T04:25:01.198Z,3.66
2019-03-27T04:27:32.588Z,3.68
2019-03-27T04:30:04.645Z,3.65
2019-03-27T04:32:36.041Z,3.58
2019-03-27T04:35:07.667Z,3.59
2019-03-27T04:37:39.048Z,3.63
2019-03-27T04:40:10.477Z,3.65
2019-03-27T04:42:41.874Z,3.63
2019-03-27T04:45:13.611Z,3.60
2019-03-27T04:47:47.141Z,3.56
2019-03-27T04:50:18.535Z,3.54
2019-03-27T04:52:50.581Z,3.48
2019-03-27T04:55:22.007Z,3.49
2019-03-27T04:57:53.398Z,3.46
2019-03-27T05:00:24.878Z,3.33
2019-03-27T05:02:56.414Z,3.30
2019-03-27T05:05:27.973Z,3.31
2019-03-27T05:07:59.939Z,3.30
2019-03-27T05:10:31.335Z,3.26
2019-03-27T05:13:02.685Z,3.23
2019-03-27T05:15:34.144Z,3.24
2019-03-27T05:18:05.511Z,3.20
2019-03-27T05:20:36.925Z,3.19
2019-03-27T05:23:08.468Z,3.21
2019-03-27T05:25:40.035Z,3.17
2019-03-27T05:28:11.606Z,3.14
2019-03-27T05:30:43.049Z,3.12
2019-03-27T05:33:15.530Z,3.05
2019-03-27T05:35:47.089Z,3.08
2019-03-27T05:38:21.383Z,3.09
2019-03-27T05:40:52.880Z,3.07
2019-03-27T05:43:24.367Z,3.08
2019-03-27T05:45:55.792Z,3.07
2019-03-27T05:48:30.413Z,3.06
2019-03-27T05:51:02.490Z,3.03
2019-03-27T05:53:33.839Z,3.08
2019-03-27T05:56:05.285Z,3.08
2019-03-27T05:58:36.740Z,3.09
2019-03-27T06:01:08.249Z,3.10
2019-03-27T06:03:42.359Z,3.07
2019-03-27T06:06:13.995Z,3.06
2019-03-27T06:08:45.873Z,3.10
2019-03-27T06:11:17.303Z,3.14
2019-03-27T06:13:48.700Z,3.13
2019-03-27T06:16:20.139Z,3.17
2019-03-27T06:18:57.594Z,3.17
2019-03-27T06:21:29.021Z,3.18
2019-03-27T06:24:00.442Z,3.13
2019-03-27T06:26:31.916Z,3.15
2019-03-27T06:29:03.319Z,3.20
2019-03-27T06:31:34.738Z,3.24
2019-03-27T06:34:08.892Z,3.28
2019-03-27T06:36:40.336Z,3.28
2019-03-27T06:39:11.730Z,3.32
2019-03-27T06:41:43.115Z,3.34
2019-03-27T06:44:14.535Z,3.36
2019-03-27T06:46:45.912Z,3.43
2019-03-27T06:49:17.344Z,3.49
2019-03-27T06:51:48.721Z,3.52
2019-03-27T06:54:20.058Z,3.57
2019-03-27T06:56:51.608Z,3.63
2019-03-27T06:59:25.252Z,3.67
2019-03-27T07:01:56.841Z,3.72
2019-03-27T07:04:28.273Z,3.76
2019-03-27T07:06:59.735Z,3.80
2019-03-27T07:09:31.125Z,3.78
2019-03-27T07:12:02.574Z,3.82
2019-03-27T07:14:33.956Z,3.87
2019-03-27T07:17:05.352Z,3.94
2019-03-27T07:19:36.737Z,3.97
2019-03-27T07:22:08.103Z,4.06
2019-03-27T07:24:39.480Z,4.12
2019-03-27T07:27:12.218Z,4.19
2019-03-27T07:29:43.596Z,4.24
2019-03-27T07:32:15.044Z,4.31
2019-03-27T07:34:46.430Z,4.35
2019-03-27T07:37:17.878Z,4.42
2019-03-27T07:39:49.345Z,4.49
2019-03-27T07:42:20.765Z,4.58
2019-03-27T07:44:52.123Z,4.62
2019-03-27T07:47:23.540Z,4.69
2019-03-27T07:49:54.926Z,4.74
2019-03-27T07:52:26.331Z,4.81
2019-03-27T07:54:57.723Z,4.85
2019-03-27T07:57:29.184Z,4.92
2019-03-27T08:00:00.529Z,4.98
2019-03-27T08:02:31.901Z,5.06
2019-03-27T08:05:03.287Z,5.11
2019-03-27T08:07:35.966Z,5.18
2019-03-27T08:10:08.340Z,5.25
2019-03-27T08:12:39.737Z,5.31
2019-03-27T08:15:11.755Z,5.39
2019-03-27T08:17:43.152Z,5.48
2019-03-27T08:20:15.094Z,5.58
2019-03-27T08:22:46.533Z,5.72
2019-03-27T08:25:17.930Z,5.85
2019-03-27T08:27:49.419Z,5.99
2019-03-27T08:30:21.007Z,6.10
2019-03-27T08:32:52.508Z,6.19
2019-03-27T08:35:25.422Z,6.31
2019-03-27T08:37:57.512Z,6.41
2019-03-27T08:40:31.138Z,6.49
2019-03-27T08:43:02.665Z,6.57
2019-03-27T08:45:34.073Z,6.70
2019-03-27T08:48:05.734Z,6.80
2019-03-27T08:50:37.171Z,6.90
2019-03-27T08:53:08.609Z,6.98
2019-03-27T08:55:40.006Z,7.07
2019-03-27T08:58:11.403Z,7.18
2019-03-27T09:00:53.335Z,7.31
2019-03-27T09:03:24.867Z,7.38
2019-03-27T09:05:56.234Z,7.43
2019-03-27T09:08:27.684Z,7.44
2019-03-27T09:11:04.540Z,7.48
2019-03-27T09:13:37.721Z,7.52
2019-03-27T09:16:09.079Z,7.56
2019-03-27T09:18:40.505Z,7.65
2019-03-27T09:21:11.857Z,7.75
2019-03-27T09:23:46.172Z,7.86
2019-03-27T09:26:17.564Z,7.92
2019-03-27T09:28:48.973Z,8.00
2019-03-27T09:31:20.383Z,8.04
2019-03-27T09:33:51.833Z,8.09
2019-03-27T09:36:23.203Z,8.13
2019-03-27T09:38:55.896Z,8.15
2019-03-27T09:41:27.235Z,8.16
2019-03-27T09:44:00.730Z,8.17
2019-03-27T09:46:32.103Z,8.19
2019-03-27T09:49:03.515Z,8.25
2019-03-27T09:51:36.781Z,8.24
2019-03-27T09:54:08.198Z,8.28
2019-03-27T09:56:39.526Z,8.33
2019-03-27T09:59:11.067Z,8.37
2019-03-27T10:01:42.439Z,8.42
2019-03-27T10:04:13.899Z,8.50
2019-03-27T10:06:45.337Z,8.55
2019-03-27T10:09:16.755Z,8.64
2019-03-27T10:11:48.196Z,8.66
2019-03-27T10:14:19.609Z,8.70
2019-03-27T10:16:50.982Z,8.77
2019-03-27T10:19:23.557Z,8.82
2019-03-27T10:21:54.929Z,8.84
2019-03-27T10:24:26.374Z,8.90
2019-03-27T10:26:57.782Z,8.95
2019-03-27T10:29:29.207Z,9.00
2019-03-27T10:32:00.587Z,9.04
2019-03-27T10:34:32.950Z,9.07
2019-03-27T10:37:04.352Z,9.11
2019-03-27T10:39:35.818Z,9.16
2019-03-27T10:42:07.349Z,9.21
2019-03-27T10:44:38.747Z,9.27
2019-03-27T10:47:10.243Z,9.27
2019-03-27T10:49:41.708Z,9.31
2019-03-27T10:52:14.573Z,9.29
2019-03-27T10:54:45.968Z,9.27
2019-03-27T10:57:17.315Z,9.30
2019-03-27T10:59:48.771Z,9.33
2019-03-27T11:02:20.126Z,9.38
2019-03-27T11:04:51.583Z,9.38
2019-03-27T11:07:22.951Z,9.36
2019-03-27T11:09:54.422Z,9.39
2019-03-27T11:12:27.315Z,9.41
2019-03-27T11:14:58.711Z,9.41
2019-03-27T11:17:30.066Z,9.44
2019-03-27T11:20:02.982Z,9.49
2019-03-27T11:22:35.805Z,9.45
2019-03-27T11:25:07.722Z,9.48
2019-03-27T11:27:39.082Z,9.49
2019-03-27T11:30:11.486Z,9.56
2019-03-27T11:32:42.817Z,9.62
2019-03-27T11:35:14.370Z,9.68
2019-03-27T11:37:45.725Z,9.75
2019-03-27T11:40:20.278Z,9.75
2019-03-27T11:42:51.620Z,9.81
2019-03-27T11:45:23.007Z,9.87
2019-03-27T11:47:54.421Z,9.91
2019-03-27T11:50:25.834Z,9.93
2019-03-27T11:52:57.226Z,9.95
2019-03-27T11:55:28.603Z,9.99
2019-03-27T11:57:59.941Z,10.03
2019-03-27T12:00:31.426Z,10.04
2019-03-27T12:03:02.797Z,10.10
2019-03-27T12:05:34.242Z,10.13
2019-03-27T12:08:05.648Z,10.18
2019-03-27T12:10:37.091Z,10.20
2019-03-27T12:13:08.480Z,10.22
2019-03-27T12:15:41.956Z,10.24
2019-03-27T12:18:15.526Z,10.26
2019-03-27T12:20:58.166Z,10.24
2019-03-27T12:23:20.453Z,10.24
2019-03-27T12:25:55.048Z,10.30
2019-03-27T12:28:24.976Z,10.31
2019-03-27T12:30:56.595Z,10.36
2019-03-27T12:33:27.987Z,10.47
2019-03-27T12:35:59.409Z,10.48
2019-03-27T12:38:30.819Z,10.48
2019-03-27T12:41:02.198Z,10.56
2019-03-27T12:43:33.623Z,10.60
2019-03-27T12:46:06.487Z,10.66
2019-03-27T12:48:37.891Z,10.67
2019-03-27T12:51:13.033Z,10.63
2019-03-27T12:53:42.412Z,10.66
2019-03-27T12:56:13.887Z,10.64
2019-03-27T12:58:45.311Z,10.61
2019-03-27T13:01:16.763Z,10.66
2019-03-27T13:03:48.203Z,10.70
2019-03-27T13:06:19.649Z,10.65
2019-03-27T13:08:51.073Z,10.65
2019-03-27T13:11:23.948Z,10.67
2019-03-27T13:13:55.373Z,10.66
2019-03-27T13:16:26.789Z,10.66
2019-03-27T13:19:00.480Z,10.62
2019-03-27T13:21:31.822Z,10.66
2019-03-27T13:24:03.267Z,10.71
2019-03-27T13:26:34.747Z,10.72
2019-03-27T13:29:06.116Z,10.78
2019-03-27T13:31:37.579Z,10.84
2019-03-27T13:34:08.970Z,10.88
2019-03-27T13:36:45.629Z,10.98
2019-03-27T13:39:16.976Z,11.12
2019-03-27T13:41:48.392Z,11.24
2019-03-27T13:44:21.366Z,11.31
2019-03-27T13:46:52.772Z,11.39
2019-03-27T13:49:24.166Z,11.47
2019-03-27T13:51:55.548Z,11.47
2019-03-27T13:54:27.047Z,11.49
2019-03-27T13:56:58.742Z,11.48
2019-03-27T13:59:31.439Z,11.44
2019-03-27T14:02:02.866Z,11.44
2019-03-27T14:04:34.367Z,11.36
2019-03-27T14:07:05.906Z,11.30
2019-03-27T14:09:38.487Z,11.35
2019-03-27T14:12:09.902Z,11.44
2019-03-27T14:14:50.404Z,11.46
2019-03-27T14:17:15.708Z,11.45
2019-03-27T14:19:47.155Z,11.46
2019-03-27T14:22:18.546Z,11.51
2019-03-27T14:24:49.965Z,11.53
2019-03-27T14:27:21.358Z,11.59
2019-03-27T14:29:52.833Z,11.57
2019-03-27T14:32:24.190Z,11.63
2019-03-27T14:34:55.605Z,11.76
2019-03-27T14:37:26.980Z,11.80
2019-03-27T14:39:58.482Z,11.92
2019-03-27T14:42:29.865Z,11.99
2019-03-27T14:45:01.331Z,12.04
2019-03-27T14:47:32.689Z,12.17
2019-03-27T14:50:04.295Z,12.25
2019-03-27T14:52:35.715Z,12.35
2019-03-27T14:55:08.438Z,12.41
2019-03-27T14:57:40.206Z,12.51
2019-03-27T15:00:12.630Z,12.46
2019-03-27T15:02:44.031Z,12.40
2019-03-27T15:05:15.557Z,12.36
2019-03-27T15:07:47.061Z,12.28
2019-03-27T15:10:18.486Z,12.17
2019-03-27T15:12:49.943Z,12.06
2019-03-27T15:15:21.377Z,11.98
2019-03-27T15:17:53.384Z,11.93
2019-03-27T15:20:25.438Z,11.93
2019-03-27T15:22:56.870Z,11.93
2019-03-27T15:25:28.237Z,11.90
2019-03-27T15:27:59.704Z,11.84
2019-03-27T15:30:32.779Z,11.88
2019-03-27T15:33:08.684Z,11.86
2019-03-27T15:35:40.096Z,11.86
2019-03-27T15:38:11.615Z,11.92
2019-03-27T15:40:47.824Z,11.89
2019-03-27T15:43:19.224Z,11.95
2019-03-27T15:45:50.623Z,11.96
2019-03-27T15:48:21.974Z,12.07
2019-03-27T15:50:58.776Z,12.18
2019-03-27T15:53:28.157Z,12.26
2019-03-27T15:55:59.618Z,12.35
2019-03-27T15:58:31.021Z,12.40
2019-03-27T16:01:02.480Z,12.39
2019-03-27T16:03:33.907Z,12.48
2019-03-27T16:06:05.346Z,12.46
2019-03-27T16:08:36.665Z,12.51
2019-03-27T16:11:08.148Z,12.55
2019-03-27T16:13:39.584Z,12.47
2019-03-27T16:16:11.978Z,12.42
2019-03-27T16:18:44.760Z,12.39
2019-03-27T16:21:19.146Z,12.35
2019-03-27T16:23:50.619Z,12.29
2019-03-27T16:26:22.619Z,12.32
2019-03-27T16:28:55.537Z,12.31
2019-03-27T16:31:26.939Z,12.30
2019-03-27T16:34:01.580Z,12.28
2019-03-27T16:36:33.756Z,12.21
2019-03-27T16:39:06.118Z,12.17
2019-03-27T16:41:37.607Z,12.09
2019-03-27T16:44:09.011Z,12.04
2019-03-27T16:46:40.598Z,11.98
2019-03-27T16:49:14.843Z,11.95
2019-03-27T16:51:48.342Z,11.82
2019-03-27T16:54:19.760Z,11.74
2019-03-27T16:56:51.270Z,11.68
2019-03-27T16:59:22.678Z,11.69
2019-03-27T17:01:59.952Z,11.58
2019-03-27T17:04:31.561Z,11.51
2019-03-27T17:07:02.999Z,11.46
2019-03-27T17:09:34.422Z,11.46
2019-03-27T17:12:05.843Z,11.45
2019-03-27T17:14:37.384Z,11.41
2019-03-27T17:17:11.938Z,11.37
2019-03-27T17:19:44.172Z,11.39
2019-03-27T17:22:19.691Z,11.33
2019-03-27T17:24:50.071Z,11.34
2019-03-27T17:27:22.842Z,11.26
2019-03-27T17:29:54.260Z,11.20
2019-03-27T17:32:25.690Z,11.18
2019-03-27T17:34:57.090Z,11.08
2019-03-27T17:37:28.524Z,11.03
2019-03-27T17:39:59.925Z,10.96
2019-03-27T17:42:32.635Z,10.88
2019-03-27T17:45:04.014Z,10.81
2019-03-27T17:47:35.448Z,10.76
2019-03-27T17:50:08.317Z,10.66
2019-03-27T17:52:39.713Z,10.61
2019-03-27T17:55:11.401Z,10.48
2019-03-27T17:57:42.884Z,10.39
2019-03-27T18:00:21.456Z,10.34
2019-03-27T18:02:52.887Z,10.25
2019-03-27T18:05:24.306Z,10.14
2019-03-27T18:07:55.795Z,10.11
2019-03-27T18:10:27.203Z,10.09
2019-03-27T18:12:58.680Z,10.03
2019-03-27T18:15:30.136Z,9.94
2019-03-27T18:18:01.569Z,9.90
2019-03-27T18:20:36.057Z,9.82
2019-03-27T18:23:07.517Z,9.77
2019-03-27T18:25:38.881Z,9.72
2019-03-27T18:28:13.310Z,9.59
2019-03-27T18:30:45.873Z,9.48
2019-03-27T18:33:17.290Z,9.43
2019-03-27T18:35:48.667Z,9.35
2019-03-27T18:38:20.085Z,9.29
2019-03-27T18:40:51.540Z,9.21
2019-03-27T18:43:23.009Z,9.16
2019-03-27T18:45:54.381Z,9.11
2019-03-27T18:48:25.794Z,9.05
2019-03-27T18:50:57.255Z,9.05
2019-03-27T18:53:30.674Z,8.95
2019-03-27T18:56:02.180Z,8.95
2019-03-27T18:58:33.547Z,8.92
2019-03-27T19:01:05.187Z,8.85
2019-03-27T19:03:36.625Z,8.72
2019-03-27T19:06:09.279Z,8.54
2019-03-27T19:08:40.664Z,8.37
2019-03-27T19:11:12.073Z,8.38
2019-03-27T19:13:43.547Z,8.41
2019-03-27T19:16:14.989Z,8.37
2019-03-27T19:18:46.507Z,8.33
2019-03-27T19:21:17.870Z,8.26
2019-03-27T19:23:49.292Z,8.23
2019-03-27T19:26:20.724Z,8.09
2019-03-27T19:29:01.942Z,8.03
2019-03-27T19:31:33.324Z,7.99
2019-03-27T19:34:04.787Z,7.98
2019-03-27T19:36:36.149Z,7.84
2019-03-27T19:39:10.307Z,7.74
2019-03-27T19:41:43.920Z,7.75
2019-03-27T19:44:15.389Z,7.74
2019-03-27T19:46:46.740Z,7.56
2019-03-27T19:49:18.226Z,7.48
2019-03-27T19:51:49.758Z,7.41
2019-03-27T19:54:27.108Z,7.30
2019-03-27T19:56:54.359Z,7.30
2019-03-27T19:59:25.809Z,7.26
2019-03-27T20:02:00.251Z,7.22
2019-03-27T20:04:31.675Z,7.15
2019-03-27T20:07:04.410Z,7.19
2019-03-27T20:09:35.974Z,7.10
2019-03-27T20:12:07.342Z,6.97
2019-03-27T20:14:38.839Z,6.87
2019-03-27T20:17:10.221Z,6.84
2019-03-27T20:19:41.714Z,6.82
2019-03-27T20:22:15.456Z,6.83
2019-03-27T20:24:46.900Z,6.83
2019-03-27T20:27:18.414Z,6.76
2019-03-27T20:29:49.835Z,6.71
2019-03-27T20:32:21.272Z,6.66
2019-03-27T20:34:54.547Z,6.58
2019-03-27T20:37:25.994Z,6.57
2019-03-27T20:39:57.449Z,6.48
2019-03-27T20:42:30.069Z,6.42
2019-03-27T20:45:03.537Z,6.45
2019-03-27T20:47:35.018Z,6.37
2019-03-27T20:50:07.204Z,6.31
2019-03-27T20:52:38.650Z,6.22
2019-03-27T20:55:11.462Z,6.17
2019-03-27T20:57:42.873Z,6.21
2019-03-27T21:00:14.906Z,6.21
2019-03-27T21:02:46.235Z,6.23
2019-03-27T21:05:17.626Z,6.11
2019-03-27T21:07:50.494Z,6.07
2019-03-27T21:10:21.904Z,5.97
2019-03-27T21:12:53.345Z,5.94
2019-03-27T21:15:24.763Z,5.96
2019-03-27T21:17:56.313Z,5.95
2019-03-27T21:20:27.748Z,5.92
2019-03-27T21:22:59.156Z,5.84
2019-03-27T21:25:30.518Z,5.73
2019-03-27T21:28:01.962Z,5.67
2019-03-27T21:30:35.376Z,5.62
2019-03-27T21:33:09.414Z,5.65
2019-03-27T21:35:40.903Z,5.57
2019-03-27T21:38:19.338Z,5.52
2019-03-27T21:40:50.824Z,5.46
2019-03-27T21:43:22.201Z,5.50
2019-03-27T21:45:53.781Z,5.50
2019-03-27T21:48:25.219Z,5.52
2019-03-27T21:50:56.653Z,5.46
2019-03-27T21:53:28.093Z,5.43
2019-03-27T21:55:59.500Z,5.38
2019-03-27T21:58:30.935Z,5.26
2019-03-27T22:01:02.594Z,5.28
2019-03-27T22:03:35.501Z,5.29
2019-03-27T22:06:06.905Z,5.31
2019-03-27T22:08:39.740Z,5.24
2019-03-27T22:11:13.207Z,5.08
2019-03-27T22:13:44.377Z,4.96
2019-03-27T22:16:15.819Z,5.06
2019-03-27T22:18:47.255Z,5.05
2019-03-27T22:21:18.716Z,5.03
2019-03-27T22:23:50.182Z,5.00
2019-03-27T22:26:21.624Z,4.87
2019-03-27T22:28:55.343Z,4.90
2019-03-27T22:31:26.777Z,4.94
2019-03-27T22:33:59.104Z,4.94
2019-03-27T22:36:30.526Z,4.82
2019-03-27T22:39:01.915Z,4.87
2019-03-27T22:41:33.385Z,4.85
2019-03-27T22:44:05.561Z,4.82
2019-03-27T22:46:36.981Z,4.74
2019-03-27T22:49:08.379Z,4.77
2019-03-27T22:51:39.793Z,4.73
2019-03-27T22:54:11.214Z,4.70
2019-03-27T22:56:42.749Z,4.69
2019-03-27T22:59:14.179Z,4.69
2019-03-27T23:01:48.144Z,4.66
2019-03-27T23:04:20.246Z,4.62
2019-03-27T23:06:54.508Z,4.58
2019-03-27T23:09:25.903Z,4.54
2019-03-27T23:11:57.381Z,4.55
2019-03-27T23:14:28.782Z,4.55
2019-03-27T23:17:00.204Z,4.55
2019-03-27T23:19:31.664Z,4.52
2019-03-27T23:22:03.164Z,4.46
2019-03-27T23:24:35.210Z,4.34
2019-03-27T23:27:06.610Z,4.31
2019-03-27T23:29:38.036Z,4.33
2019-03-27T23:32:12.700Z,4.33
2019-03-27T23:34:46.810Z,4.22
2019-03-27T23:37:18.209Z,4.18
2019-03-27T23:39:50.197Z,4.13
2019-03-27T23:42:21.669Z,4.08
2019-03-27T23:44:53.028Z,4.00
2019-03-27T23:47:26.947Z,4.05
2019-03-27T23:49:58.298Z,4.10
2019-03-27T23:52:29.749Z,4.02
2019-03-27T23:55:01.145Z,4.04
2019-03-27T23:57:32.536Z,4.01
